createdAt,value
2018-11-26T00:01:18.382Z,19.40
2018-11-26T00:06:16.184Z,20.17
2018-11-26T00:11:38.649Z,20.67
2018-11-26T00:16:36.419Z,20.20
2018-11-26T00:21:34.308Z,20.20
2018-11-26T00:26:32.311Z,22.80
2018-11-26T00:31:30.185Z,22.07
2018-11-26T00:36:28.059Z,20.47
2018-11-26T00:41:25.820Z,20.43
2018-11-26T00:46:24.287Z,22.83
2018-11-26T00:51:22.981Z,23.20
2018-11-26T00:56:20.768Z,22.07
2018-11-26T01:01:18.522Z,21.57
2018-11-26T01:06:16.464Z,23.53
2018-11-26T01:11:14.231Z,24.03
2018-11-26T01:16:12.069Z,26.10
2018-11-26T01:21:10.075Z,23.87
2018-11-26T01:26:07.962Z,25.17
2018-11-26T01:31:05.768Z,23.67
2018-11-26T01:36:03.720Z,25.13
2018-11-26T01:41:02.994Z,24.70
2018-11-26T01:46:01.020Z,26.77
2018-11-26T01:50:58.780Z,24.83
2018-11-26T01:55:56.756Z,25.00
2018-11-26T02:00:54.712Z,26.33
2018-11-26T02:05:52.548Z,24.40
2018-11-26T02:10:50.264Z,30.13
2018-11-26T02:15:48.050Z,27.53
2018-11-26T02:20:45.782Z,28.33
2018-11-26T02:25:43.556Z,28.17
2018-11-26T02:30:41.301Z,26.30
2018-11-26T02:35:39.051Z,26.87
2018-11-26T02:40:36.801Z,27.57
2018-11-26T02:45:34.528Z,27.97
2018-11-26T02:50:32.299Z,27.47
2018-11-26T02:55:30.049Z,29.87
2018-11-26T03:00:27.790Z,27.27
2018-11-26T03:05:34.603Z,28.57
2018-11-26T03:10:32.358Z,27.10
2018-11-26T03:15:30.088Z,28.67
2018-11-26T03:20:27.877Z,27.40
2018-11-26T03:25:25.674Z,27.30
2018-11-26T03:30:26.488Z,26.70
2018-11-26T03:35:24.271Z,26.53
2018-11-26T03:40:21.998Z,29.27
2018-11-26T03:45:20.745Z,28.33
2018-11-26T03:50:18.648Z,28.43
2018-11-26T03:55:16.773Z,28.27
2018-11-26T04:00:18.597Z,30.50
2018-11-26T04:05:16.523Z,28.30
2018-11-26T04:10:17.494Z,26.13
2018-11-26T04:15:18.728Z,30.77
2018-11-26T04:20:16.455Z,31.30
2018-11-26T04:25:14.227Z,30.03
2018-11-26T04:30:15.679Z,33.80
2018-11-26T04:35:13.577Z,31.20
2018-11-26T04:40:12.801Z,29.87
2018-11-26T04:45:12.014Z,29.17
2018-11-26T04:50:12.180Z,34.07
2018-11-26T04:55:10.908Z,31.17
2018-11-26T05:00:17.081Z,30.83
2018-11-26T05:05:15.757Z,30.30
2018-11-26T05:10:17.713Z,32.50
2018-11-26T05:15:16.249Z,33.10
2018-11-26T05:20:17.346Z,31.80
2018-11-26T05:25:15.320Z,33.43
2018-11-26T05:30:16.761Z,32.53
2018-11-26T05:35:15.305Z,33.17
2018-11-26T05:40:15.024Z,32.57
2018-11-26T05:45:17.974Z,34.23
2018-11-26T05:50:16.770Z,29.60
2018-11-26T05:55:18.597Z,36.67
2018-11-26T06:00:34.667Z,35.30
2018-11-26T06:05:32.395Z,33.93
2018-11-26T06:10:30.177Z,33.90
2018-11-26T06:15:27.912Z,34.00
2018-11-26T06:20:25.644Z,39.57
2018-11-26T06:25:26.571Z,33.57
2018-11-26T06:30:24.311Z,35.47
2018-11-26T06:35:28.292Z,32.43
2018-11-26T06:40:26.017Z,35.57
2018-11-26T06:45:27.171Z,31.47
2018-11-26T06:50:25.074Z,32.33
2018-11-26T06:55:25.863Z,35.80
2018-11-26T07:00:23.603Z,32.53
2018-11-26T07:05:23.065Z,30.73
2018-11-26T07:10:21.755Z,32.57
2018-11-26T07:15:21.749Z,37.50
2018-11-26T07:20:23.499Z,34.00
2018-11-26T07:25:22.567Z,32.97
2018-11-26T07:30:31.543Z,33.30
2018-11-26T07:35:29.290Z,34.07
2018-11-26T07:40:27.216Z,35.17
2018-11-26T07:45:25.132Z,37.63
2018-11-26T07:50:22.952Z,33.10
2018-11-26T07:55:22.159Z,35.70
2018-11-26T08:00:21.738Z,36.27
2018-11-26T08:05:24.116Z,38.60
2018-11-26T08:10:23.382Z,37.23
2018-11-26T08:15:39.398Z,36.60
2018-11-26T08:20:37.107Z,36.47
2018-11-26T08:25:34.841Z,37.60
2018-11-26T08:30:32.609Z,35.73
2018-11-26T08:35:33.559Z,35.17
2018-11-26T08:40:33.006Z,36.83
2018-11-26T08:45:37.790Z,35.77
2018-11-26T08:50:35.516Z,33.60
2018-11-26T08:55:33.254Z,35.13
2018-11-26T09:00:31.008Z,36.40
2018-11-26T09:05:45.522Z,36.77
2018-11-26T09:10:43.227Z,36.80
2018-11-26T09:15:40.965Z,33.80
2018-11-26T09:20:38.691Z,36.73
2018-11-26T09:25:37.745Z,34.80
2018-11-26T09:30:35.078Z,34.57
2018-11-26T09:35:32.891Z,36.17
2018-11-26T09:40:30.690Z,34.53
2018-11-26T09:45:28.459Z,35.20
2018-11-26T09:50:26.725Z,37.17
2018-11-26T09:55:24.549Z,30.87
2018-11-26T10:00:22.745Z,33.20
2018-11-26T10:05:22.221Z,32.43
2018-11-26T10:10:20.028Z,32.77
2018-11-26T10:15:22.513Z,31.33
2018-11-26T10:20:20.297Z,33.03
2018-11-26T10:25:22.633Z,31.53
2018-11-26T10:30:24.947Z,33.90
2018-11-26T10:35:23.155Z,28.50
2018-11-26T10:40:28.113Z,33.10
2018-11-26T10:45:27.098Z,29.93
2018-11-26T10:50:27.064Z,29.33
2018-11-26T10:55:43.035Z,29.93
2018-11-26T11:01:05.050Z,32.50
2018-11-26T11:06:02.774Z,28.47
2018-11-26T11:11:00.517Z,33.47
2018-11-26T11:15:58.272Z,31.77
2018-11-26T11:20:56.011Z,30.53
2018-11-26T11:25:53.827Z,36.03
2018-11-26T11:30:51.974Z,33.20
2018-11-26T11:35:49.780Z,34.57
2018-11-26T11:40:47.521Z,35.07
2018-11-26T11:45:45.322Z,32.07
2018-11-26T11:50:43.082Z,29.13
2018-11-26T11:55:40.884Z,34.00
2018-11-26T12:00:43.033Z,32.23
2018-11-26T12:05:40.769Z,31.80
2018-11-26T12:10:38.591Z,34.47
2018-11-26T12:15:36.673Z,31.47
2018-11-26T12:20:34.476Z,30.50
2018-11-26T12:25:32.305Z,33.47
2018-11-26T12:30:34.809Z,31.97
2018-11-26T12:35:32.635Z,30.23
2018-11-26T12:40:30.679Z,33.67
2018-11-26T12:45:37.669Z,33.77
2018-11-26T12:50:35.506Z,31.23
2018-11-26T12:55:33.257Z,31.93
2018-11-26T13:00:31.957Z,31.57
2018-11-26T13:05:29.837Z,33.37
2018-11-26T13:10:27.526Z,31.43
2018-11-26T13:15:29.843Z,34.80
2018-11-26T13:20:29.649Z,34.07
2018-11-26T13:25:35.083Z,37.27
2018-11-26T13:30:37.803Z,37.43
2018-11-26T13:35:35.531Z,36.67
2018-11-26T13:40:33.295Z,37.07
2018-11-26T13:45:48.193Z,35.67
2018-11-26T13:50:59.093Z,40.43
2018-11-26T13:55:56.872Z,38.10
2018-11-26T14:00:54.616Z,38.03
2018-11-26T14:05:53.064Z,40.77
2018-11-26T14:10:50.847Z,41.03
2018-11-26T14:15:48.728Z,40.63
2018-11-26T14:20:46.635Z,39.83
2018-11-26T14:25:44.493Z,38.50
2018-11-26T14:30:42.288Z,36.73
2018-11-26T14:35:40.060Z,36.27
2018-11-26T14:40:57.299Z,36.73
2018-11-26T14:45:55.056Z,43.67
2018-11-26T14:50:52.840Z,38.30
2018-11-26T14:55:50.585Z,43.53
2018-11-26T15:00:48.352Z,36.47
2018-11-26T15:05:46.146Z,39.00
2018-11-26T15:10:43.903Z,33.63
2018-11-26T15:15:41.725Z,37.57
2018-11-26T15:20:39.706Z,35.70
2018-11-26T15:25:37.800Z,33.57
2018-11-26T15:30:35.555Z,36.77
2018-11-26T15:35:33.525Z,36.97
2018-11-26T15:40:31.338Z,35.60
2018-11-26T15:45:30.642Z,37.63
2018-11-26T15:50:28.450Z,35.63
2018-11-26T15:55:26.345Z,37.53
2018-11-26T16:00:27.970Z,35.77
2018-11-26T16:05:30.294Z,39.07
2018-11-26T16:10:28.074Z,35.83
2018-11-26T16:15:34.431Z,40.27
2018-11-26T16:20:32.416Z,39.53
2018-11-26T16:25:30.183Z,42.03
2018-11-26T16:30:27.889Z,38.93
2018-11-26T16:35:33.236Z,44.30
2018-11-26T16:40:31.004Z,40.43
2018-11-26T16:45:31.437Z,40.37
2018-11-26T16:50:37.242Z,39.90
2018-11-26T16:55:34.979Z,41.03
2018-11-26T17:00:33.685Z,42.57
2018-11-26T17:05:39.259Z,46.03
2018-11-26T17:10:37.029Z,42.10
2018-11-26T17:15:34.804Z,43.03
2018-11-26T17:20:32.531Z,44.80
2018-11-26T17:25:30.270Z,47.10
2018-11-26T17:30:29.337Z,44.20
2018-11-26T17:35:27.078Z,50.67
2018-11-26T17:40:28.282Z,45.43
2018-11-26T17:45:26.491Z,49.83
2018-11-26T17:50:40.193Z,48.43
2018-11-26T17:55:56.047Z,51.20
2018-11-26T18:01:47.191Z,49.10
2018-11-26T18:06:47.593Z,48.73
2018-11-26T18:11:44.616Z,51.13
2018-11-26T18:16:43.675Z,52.27
2018-11-26T18:21:42.012Z,47.53
2018-11-26T18:26:40.290Z,52.63
2018-11-26T18:31:39.818Z,53.30
2018-11-26T18:36:38.006Z,55.27
2018-11-26T18:41:35.950Z,52.47
2018-11-26T18:46:34.334Z,53.77
2018-11-26T18:51:33.110Z,59.63
2018-11-26T18:56:31.285Z,51.23
2018-11-26T19:01:29.836Z,52.83
2018-11-26T19:06:28.969Z,49.20
2018-11-26T19:11:28.357Z,53.07
2018-11-26T19:16:33.463Z,55.37
2018-11-26T19:21:32.043Z,55.17
2018-11-26T19:26:30.329Z,49.67
2018-11-26T19:31:34.036Z,52.60
2018-11-26T19:36:32.125Z,55.33
2018-11-26T19:41:30.673Z,52.00
2018-11-26T19:46:34.561Z,53.30
2018-11-26T19:51:34.212Z,55.07
2018-11-26T19:56:33.997Z,54.10
2018-11-26T20:01:32.655Z,54.97
2018-11-26T20:06:31.728Z,53.03
2018-11-26T20:11:33.232Z,54.97
2018-11-26T20:16:50.269Z,55.67
2018-11-26T20:21:48.469Z,55.30
2018-11-26T20:26:47.390Z,56.10
2018-11-26T20:31:46.833Z,54.57
2018-11-26T20:36:48.598Z,54.63
2018-11-26T20:41:48.100Z,49.63
2018-11-26T20:46:49.123Z,57.60
2018-11-26T20:51:47.167Z,55.97
2018-11-26T20:56:45.537Z,52.40
2018-11-26T21:01:43.789Z,54.73
2018-11-26T21:06:43.238Z,53.90
2018-11-26T21:11:41.643Z,55.57
2018-11-26T21:16:45.589Z,50.87
2018-11-26T21:21:43.847Z,51.13
2018-11-26T21:26:42.381Z,57.67
2018-11-26T21:31:40.761Z,56.23
2018-11-26T21:36:39.225Z,56.13
2018-11-26T21:41:37.559Z,49.73
2018-11-26T21:46:38.872Z,57.47
2018-11-26T21:51:37.115Z,51.60
2018-11-26T21:56:36.021Z,54.53
2018-11-26T22:01:34.209Z,58.60
2018-11-26T22:06:33.117Z,53.97
2018-11-26T22:11:30.992Z,57.53
2018-11-26T22:16:29.513Z,58.33
2018-11-26T22:21:27.666Z,55.57
2018-11-26T22:26:29.268Z,54.70
2018-11-26T22:31:27.066Z,53.47
2018-11-26T22:36:25.330Z,58.80
2018-11-26T22:41:24.310Z,55.33
2018-11-26T22:46:22.356Z,52.13
2018-11-26T22:51:20.770Z,57.23
2018-11-26T22:56:19.155Z,58.13
2018-11-26T23:01:17.135Z,56.07
2018-11-26T23:06:15.958Z,53.90
2018-11-26T23:11:13.993Z,56.83
2018-11-26T23:16:12.286Z,51.47
2018-11-26T23:21:10.814Z,51.30
2018-11-26T23:26:09.115Z,55.60
2018-11-26T23:31:07.747Z,55.80
2018-11-26T23:36:06.568Z,55.53
2018-11-26T23:41:06.112Z,56.07
2018-11-26T23:46:04.628Z,55.53
2018-11-26T23:51:03.847Z,54.37
2018-11-26T23:56:02.611Z,49.53
